Time;durP1;ratioP1;P1;durP2;ratioP2;P2;SDS_P1;SDS_P2;PMS_P1;PMS_P2;Temp;Humidity;BMP_temperature;BMP_pressure;BME280_temperature;BME280_humidity;BME280_pressure;Samples;Min_cycle;Max_cycle;Signal;HPM_P1;HPM_P2
2023/10/01 00:02:19;;;;;;;7.45;5.18;;;;;;;14.05;74.26;99713.63;5029529;28;20465;-80
2023/10/01 00:04:45;;;;;;;10.02;5.10;;;;;;;14.12;73.43;99708.91;5048834;28;20021;-81
2023/10/01 00:07:11;;;;;;;10.60;5.10;;;;;;;14.12;73.50;99700.03;5032182;28;20025;-80
2023/10/01 00:09:37;;;;;;;12.13;5.20;;;;;;;14.12;73.63;99694.66;5031407;28;20104;-80
2023/10/01 00:12:02;;;;;;;12.15;4.93;;;;;;;14.11;74.04;99693.00;5033431;28;20036;-80
2023/10/01 00:14:27;;;;;;;6.65;4.10;;;;;;;14.13;73.76;99691.72;5049251;28;20041;-80
2023/10/01 00:16:53;;;;;;;7.20;4.35;;;;;;;14.02;74.02;99684.59;5046206;28;20493;-80
2023/10/01 00:19:18;;;;;;;11.82;5.05;;;;;;;14.02;74.00;99681.13;5029044;28;20413;-80
2023/10/01 00:21:44;;;;;;;4.72;4.00;;;;;;;14.08;73.97;99693.53;5051036;28;20507;-81
2023/10/01 00:24:10;;;;;;;11.02;4.93;;;;;;;14.07;73.51;99679.28;5046485;28;20025;-80
2023/10/01 00:26:36;;;;;;;9.73;4.82;;;;;;;14.07;73.79;99687.34;5032064;28;20408;-80
2023/10/01 00:29:02;;;;;;;8.98;5.00;;;;;;;13.99;74.02;99692.34;5048392;28;20028;-80
2023/10/01 00:31:27;;;;;;;9.18;5.07;;;;;;;14.14;74.04;99697.91;5047153;28;20028;-80
2023/10/01 00:33:53;;;;;;;9.55;4.20;;;;;;;13.98;74.20;99686.16;5031867;28;20025;-80
2023/10/01 00:36:19;;;;;;;8.88;4.40;;;;;;;13.87;73.82;99680.94;5049233;28;20108;-80
2023/10/01 00:38:45;;;;;;;8.13;4.30;;;;;;;14.06;74.10;99703.72;5058753;28;20009;-82
2023/10/01 00:41:11;;;;;;;8.88;5.10;;;;;;;13.75;74.34;99664.94;5078621;28;20025;-81
2023/10/01 00:43:36;;;;;;;7.45;4.32;;;;;;;13.96;73.94;99684.78;5078659;28;20040;-82
2023/10/01 00:46:05;;;;;;;13.50;5.53;;;;;;;13.87;74.96;99705.09;5067790;28;20041;-82
2023/10/01 00:48:32;;;;;;;8.05;4.78;;;;;;;13.60;74.95;99666.63;5066979;28;20005;-82
2023/10/01 00:51:00;;;;;;;10.60;5.20;;;;;;;13.82;75.47;99694.28;5074926;28;20029;-81
2023/10/01 00:53:26;;;;;;;14.40;4.75;;;;;;;13.70;75.32;99664.88;5077479;28;20013;-81
2023/10/01 00:55:51;;;;;;;16.48;5.55;;;;;;;13.31;76.64;99639.94;5076747;28;20087;-82
2023/10/01 00:58:18;;;;;;;8.00;4.43;;;;;;;13.90;75.26;99677.75;5073196;28;20053;-81
2023/10/01 01:00:45;;;;;;;5.72;4.32;;;;;;;13.98;74.75;99674.59;5072790;28;20013;-81
2023/10/01 01:03:18;;;;;;;7.47;3.92;;;;;;;13.81;74.18;99636.28;5074631;28;20013;-81
2023/10/01 01:06:05;;;;;;;10.63;4.65;;;;;;;14.06;74.12;99669.63;5073592;28;20354;-81
2023/10/01 01:08:33;;;;;;;8.07;3.88;;;;;;;13.86;74.18;99637.19;5056850;28;20013;-82
2023/10/01 01:11:01;;;;;;;6.35;3.70;;;;;;;14.19;73.02;99655.00;5065964;28;20048;-81
2023/10/01 01:13:28;;;;;;;10.73;3.90;;;;;;;13.80;73.82;99629.31;5076300;28;20043;-82
2023/10/01 01:15:57;;;;;;;6.28;3.47;;;;;;;14.09;73.78;99658.38;5072612;28;20072;-81
2023/10/01 01:18:26;;;;;;;7.65;3.90;;;;;;;13.52;73.75;99582.00;5076943;28;20009;-81
2023/10/01 01:20:57;;;;;;;11.15;3.78;;;;;;;13.48;73.94;99579.03;5077338;28;20035;-82
2023/10/01 01:23:23;;;;;;;7.47;3.88;;;;;;;13.90;74.07;99637.47;5076955;28;20024;-82
2023/10/01 01:25:54;;;;;;;8.13;4.45;;;;;;;13.92;73.66;99652.28;5074241;28;20021;-81
2023/10/01 01:28:27;;;;;;;6.50;3.53;;;;;;;13.22;74.35;99569.03;5080674;28;20052;-81
2023/10/01 01:30:53;;;;;;;7.63;3.70;;;;;;;13.84;74.25;99643.84;5077213;28;20030;-81
2023/10/01 01:33:31;;;;;;;9.30;3.80;;;;;;;14.05;73.85;99667.19;5084600;28;20055;-81
2023/10/01 01:36:03;;;;;;;10.05;3.83;;;;;;;14.07;73.51;99657.00;5084897;28;20017;-81
2023/10/01 01:38:31;;;;;;;8.45;4.68;;;;;;;13.86;73.49;99622.94;5081546;28;20026;-81
2023/10/01 01:40:56;;;;;;;10.07;4.13;;;;;;;13.87;73.32;99640.69;5081394;28;20029;-81
2023/10/01 01:43:22;;;;;;;5.03;3.83;;;;;;;13.71;73.22;99612.03;5080921;28;20025;-82
2023/10/01 01:45:54;;;;;;;7.80;4.25;;;;;;;13.74;72.95;99616.91;5063330;28;20028;-83
2023/10/01 01:48:37;;;;;;;7.82;4.05;;;;;;;13.82;72.22;99617.28;5065239;28;20025;-81
2023/10/01 01:51:06;;;;;;;9.20;4.35;;;;;;;13.71;73.05;99593.25;5079551;28;20066;-82
2023/10/01 01:53:35;;;;;;;6.70;3.90;;;;;;;14.04;72.92;99636.84;5069790;28;20056;-82
2023/10/01 01:56:10;;;;;;;9.38;3.80;;;;;;;14.08;72.57;99634.47;5081060;28;20041;-82
2023/10/01 01:58:40;;;;;;;7.23;4.10;;;;;;;13.68;72.54;99580.31;5079831;28;20013;-82
2023/10/01 02:01:17;;;;;;;9.73;4.75;;;;;;;13.99;72.68;99625.25;5079972;28;20005;-82
2023/10/01 02:03:46;;;;;;;8.25;4.03;;;;;;;13.99;72.54;99639.47;5077698;28;20033;-82
2023/10/01 02:06:13;;;;;;;9.10;4.00;;;;;;;14.01;72.40;99641.91;5080828;28;20036;-81
2023/10/01 02:08:49;;;;;;;10.27;4.60;;;;;;;13.93;72.50;99620.88;5069410;28;20025;-81
2023/10/01 02:11:19;;;;;;;11.05;4.28;;;;;;;14.07;72.74;99646.25;5051393;28;20033;-81
2023/10/01 02:13:46;;;;;;;6.78;3.90;;;;;;;14.09;72.24;99660.25;5067972;28;20029;-81
2023/10/01 02:19:17;;;;;;;7.18;3.83;;;;;;;13.63;72.19;99602.53;5060142;28;20034;-82
2023/10/01 02:21:52;;;;;;;7.75;4.47;;;;;;;13.87;72.19;99627.25;5073541;28;20013;-82
2023/10/01 02:24:22;;;;;;;8.63;4.03;;;;;;;13.77;72.50;99601.09;5077926;28;20020;-82
2023/10/01 02:26:53;;;;;;;11.05;4.30;;;;;;;13.99;72.32;99635.97;5078008;28;20029;-82
2023/10/01 02:29:25;;;;;;;5.80;4.00;;;;;;;13.75;71.88;99595.19;5070968;28;20021;-81
2023/10/01 02:31:56;;;;;;;7.53;3.75;;;;;;;13.95;72.19;99634.88;5070172;28;20056;-82
2023/10/01 02:34:22;;;;;;;7.43;4.40;;;;;;;13.98;71.95;99623.59;5076814;28;20013;-82
2023/10/01 02:36:49;;;;;;;7.15;4.28;;;;;;;13.85;72.04;99594.47;5079211;28;20021;-81
2023/10/01 02:39:28;;;;;;;8.88;4.80;;;;;;;13.82;71.90;99603.88;5077592;28;20013;-81
2023/10/01 02:44:31;;;;;;;8.07;4.35;;;;;;;13.72;71.76;99592.19;5080493;28;20033;-81
2023/10/01 02:47:01;;;;;;;11.38;4.70;;;;;;;13.57;71.84;99565.16;5080675;28;20017;-81
2023/10/01 02:49:27;;;;;;;6.80;4.15;;;;;;;13.94;71.80;99625.19;5080293;28;20043;-81
2023/10/01 02:51:53;;;;;;;11.00;4.38;;;;;;;14.03;72.00;99626.34;5046721;28;20022;-81
2023/10/01 02:54:20;;;;;;;10.90;4.30;;;;;;;13.82;71.79;99586.94;5060805;28;20024;-81
2023/10/01 02:59:30;;;;;;;6.63;4.22;;;;;;;13.54;72.47;99561.94;5077058;28;20051;-81
2023/10/01 03:01:55;;;;;;;11.02;4.40;;;;;;;13.83;72.38;99613.53;5079828;28;20076;-81
2023/10/01 03:04:22;;;;;;;9.35;3.90;;;;;;;14.02;72.19;99612.13;5062546;28;20038;-81
2023/10/01 03:06:54;;;;;;;12.80;4.32;;;;;;;14.00;72.06;99610.78;5077467;28;20032;-81
2023/10/01 03:09:40;;;;;;;5.10;4.07;;;;;;;13.69;73.28;99593.50;5083230;28;20044;-82
2023/10/01 03:12:24;;;;;;;9.57;4.30;;;;;;;13.68;72.14;99573.09;5060807;28;20021;-81
2023/10/01 03:17:38;;;;;;;8.50;4.30;;;;;;;13.68;73.21;99566.91;5076689;28;20013;-82
2023/10/01 03:20:58;;;;;;;7.95;4.28;;;;;;;13.75;72.65;99570.22;5079080;28;20017;-81
2023/10/01 03:28:35;;;;;;;7.78;4.55;;;;;;;13.81;72.88;99588.81;5032336;28;20036;-83
2023/10/01 03:35:04;;;;;;;10.13;4.45;;;;;;;13.48;73.28;99575.53;4907658;29;20028;-85
2023/10/01 03:37:38;;;;;;;8.77;5.20;;;;;;;13.57;73.39;99573.22;5012939;28;20033;-83
2023/10/01 03:40:16;;;;;;;9.15;4.35;;;;;;;13.62;73.81;99587.50;4993604;28;20030;-83
2023/10/01 03:42:49;;;;;;;9.98;5.28;;;;;;;13.70;73.40;99584.38;5022216;28;21820;-80
2023/10/01 03:47:43;;;;;;;7.47;4.30;;;;;;;13.76;73.59;99593.31;4999287;28;20050;-81
2023/10/01 03:50:15;;;;;;;9.05;4.93;;;;;;;13.85;73.32;99610.56;5016529;28;20520;-81
2023/10/01 03:52:51;;;;;;;6.95;4.15;;;;;;;13.85;72.57;99583.75;5014909;28;20037;-81
2023/10/01 03:55:27;;;;;;;8.50;3.90;;;;;;;13.74;72.99;99590.06;5014565;28;20018;-80
2023/10/01 04:01:21;;;;;;;7.20;4.32;;;;;;;14.05;73.05;99611.63;5012938;28;19945;-82
2023/10/01 04:04:15;;;;;;;7.95;4.50;;;;;;;14.09;72.25;99602.00;5016771;28;20064;-80
2023/10/01 04:10:58;;;;;;;10.27;5.00;;;;;;;13.79;73.13;99582.06;5008378;28;20028;-82
2023/10/01 04:28:44;;;;;;;12.52;6.07;;;;;;;13.97;72.53;99638.94;4930782;29;20134;-81
2023/10/01 04:39:26;;;;;;;;;;;;;;;;;;;;;
2023/10/01 04:42:37;;;;;;;7.80;5.50;;;;;;;13.81;73.56;99642.47;4877460;29;20049;-81
2023/10/01 04:45:22;;;;;;;14.75;5.07;;;;;;;13.68;74.27;99633.97;4879491;29;20122;-78
2023/10/01 04:47:49;;;;;;;9.20;5.05;;;;;;;14.01;73.32;99636.53;4924075;28;20054;-78
2023/10/01 04:50:17;;;;;;;9.38;4.93;;;;;;;13.99;73.17;99631.44;5011767;28;20033;-82
2023/10/01 04:52:44;;;;;;;11.15;4.82;;;;;;;14.00;73.50;99627.66;5012488;28;20022;-81
2023/10/01 04:55:09;;;;;;;8.57;4.97;;;;;;;14.08;73.36;99627.25;5013901;28;20030;-81
2023/10/01 04:57:36;;;;;;;12.50;4.88;;;;;;;14.07;72.61;99628.28;4992930;28;20394;-81
2023/10/01 05:00:10;;;;;;;12.65;5.03;;;;;;;14.08;72.94;99627.25;4992591;28;20029;-82
2023/10/01 05:02:36;;;;;;;8.65;4.88;;;;;;;14.12;72.31;99625.66;5019653;28;20026;-83
2023/10/01 05:05:10;;;;;;;8.23;5.10;;;;;;;14.15;72.09;99635.88;4999530;28;20104;-81
2023/10/01 05:07:36;;;;;;;7.70;5.07;;;;;;;14.11;72.21;99628.59;5013750;28;20118;-81
2023/10/01 05:10:04;;;;;;;8.75;5.95;;;;;;;14.10;72.08;99630.47;4995672;28;20630;-81
2023/10/01 05:12:31;;;;;;;8.45;5.72;;;;;;;14.06;72.35;99628.56;5007215;28;20425;-81
2023/10/01 05:14:59;;;;;;;7.03;4.88;;;;;;;14.18;72.10;99619.28;4982551;28;20030;-81
2023/10/01 05:17:30;;;;;;;11.30;4.68;;;;;;;14.13;72.42;99627.28;5000906;28;20041;-81
2023/10/01 05:19:58;;;;;;;12.40;5.38;;;;;;;14.18;71.83;99624.66;5031483;28;20094;-80
2023/10/01 05:22:25;;;;;;;9.20;5.43;;;;;;;14.15;72.35;99633.19;5024372;28;20029;-81
2023/10/01 05:24:50;;;;;;;7.05;4.70;;;;;;;14.12;71.93;99627.53;5025525;28;20032;-81
2023/10/01 05:27:18;;;;;;;14.40;5.82;;;;;;;14.11;71.91;99632.09;4997760;28;20033;-81
2023/10/01 05:29:45;;;;;;;11.52;5.28;;;;;;;14.17;72.11;99624.91;5026559;28;20025;-81
2023/10/01 05:32:11;;;;;;;13.68;5.80;;;;;;;14.13;71.85;99624.59;5020708;28;20710;-81
2023/10/01 05:34:38;;;;;;;14.30;6.05;;;;;;;14.09;72.19;99630.72;4999505;28;20049;-80
2023/10/01 05:37:09;;;;;;;11.25;5.05;;;;;;;14.16;72.37;99628.66;5015618;28;20478;-80
2023/10/01 05:42:26;;;;;;;11.13;5.20;;;;;;;14.15;72.05;99635.09;5005050;28;20123;-80
2023/10/01 05:44:54;;;;;;;11.45;5.30;;;;;;;14.14;72.49;99636.16;5008426;28;20030;-80
2023/10/01 05:47:20;;;;;;;6.60;5.63;;;;;;;14.07;72.35;99628.28;5006829;28;20026;-80
2023/10/01 05:49:49;;;;;;;9.68;4.93;;;;;;;14.08;72.31;99623.75;5008930;28;20029;-80
2023/10/01 05:52:17;;;;;;;9.35;5.75;;;;;;;14.10;72.41;99637.72;5007437;28;20029;-80
2023/10/01 05:54:52;;;;;;;8.57;5.18;;;;;;;14.08;72.82;99639.84;5012221;28;20054;-81
2023/10/01 05:57:21;;;;;;;9.27;5.70;;;;;;;14.04;72.82;99631.47;5009563;28;20445;-80
2023/10/01 05:59:56;;;;;;;10.25;5.82;;;;;;;14.04;72.57;99636.84;5008808;28;20334;-80
2023/10/01 06:05:42;;;;;;;13.98;6.15;;;;;;;14.10;72.60;99651.97;5011864;28;20044;-84
2023/10/01 06:08:18;;;;;;;7.60;5.35;;;;;;;14.12;72.43;99647.16;5023852;28;20053;-80
2023/10/01 06:10:59;;;;;;;9.07;5.40;;;;;;;14.14;72.04;99639.66;5020108;28;20030;-80
2023/10/01 06:13:27;;;;;;;9.23;5.15;;;;;;;14.16;72.26;99644.75;5007325;28;20038;-81
2023/10/01 06:15:53;;;;;;;10.35;5.00;;;;;;;14.10;72.45;99635.03;5030242;28;20109;-83
2023/10/01 06:18:19;;;;;;;11.25;5.05;;;;;;;14.15;72.30;99635.09;4987366;28;20081;-81
2023/10/01 06:20:46;;;;;;;8.68;5.05;;;;;;;14.20;72.45;99635.94;5018522;28;20035;-83
2023/10/01 06:23:11;;;;;;;8.40;5.20;;;;;;;14.22;72.51;99627.63;4994938;28;20034;-83
2023/10/01 06:25:47;;;;;;;7.40;4.22;;;;;;;14.23;72.10;99629.28;4998275;28;20504;-82
2023/10/01 06:28:20;;;;;;;9.10;4.65;;;;;;;14.20;72.63;99635.94;4971017;28;20486;-83
2023/10/01 06:30:46;;;;;;;10.18;5.47;;;;;;;14.12;71.90;99619.47;5012554;28;20042;-83
2023/10/01 06:33:29;;;;;;;9.85;6.03;;;;;;;14.23;72.57;99631.94;4996764;28;20995;-83
2023/10/01 06:36:15;;;;;;;7.55;4.80;;;;;;;14.20;72.28;99638.63;4982125;28;20131;-83
2023/10/01 06:38:44;;;;;;;12.50;5.57;;;;;;;14.26;72.75;99639.53;4984859;28;20030;-83
2023/10/01 06:41:25;;;;;;;10.05;6.15;;;;;;;14.32;72.08;99637.72;4995316;28;20037;-83
2023/10/01 06:43:56;;;;;;;11.43;4.93;;;;;;;14.41;71.94;99634.31;5007767;28;20061;-83
2023/10/01 06:46:35;;;;;;;8.32;4.80;;;;;;;14.33;72.02;99637.44;4979263;28;20038;-84
2023/10/01 06:49:03;;;;;;;8.93;5.10;;;;;;;14.48;71.72;99644.88;4986292;28;20025;-82
2023/10/01 06:51:37;;;;;;;13.93;5.97;;;;;;;14.48;72.17;99647.56;4984831;28;20042;-83
2023/10/01 06:54:05;;;;;;;10.23;5.20;;;;;;;14.62;71.82;99652.25;4997668;28;20029;-82
2023/10/01 06:56:33;;;;;;;8.68;4.85;;;;;;;14.55;71.64;99646.25;4999351;28;20087;-83
2023/10/01 07:01:34;;;;;;;10.65;5.25;;;;;;;14.58;71.44;99640.41;4998640;28;20037;-82
2023/10/01 07:04:06;;;;;;;12.75;5.25;;;;;;;14.67;71.57;99646.13;5006592;28;20025;-83
2023/10/01 07:06:34;;;;;;;8.10;4.95;;;;;;;14.61;71.76;99650.63;4995362;28;20069;-83
2023/10/01 07:08:59;;;;;;;9.75;5.50;;;;;;;14.66;71.49;99657.91;5021762;28;20022;-83
2023/10/01 07:11:28;;;;;;;9.00;4.88;;;;;;;14.67;71.66;99649.63;5001660;28;20021;-82
2023/10/01 07:14:38;;;;;;;8.20;5.22;;;;;;;14.68;72.07;99653.91;5016738;28;20471;-83
2023/10/01 07:17:19;;;;;;;8.75;5.80;;;;;;;14.65;71.99;99659.81;5014679;28;20029;-85
2023/10/01 07:19:46;;;;;;;10.00;4.65;;;;;;;14.62;72.43;99656.81;5011162;28;20092;-84
2023/10/01 07:22:14;;;;;;;9.02;4.70;;;;;;;14.67;71.69;99663.06;5001064;28;20042;-84
2023/10/01 07:24:40;;;;;;;9.40;5.38;;;;;;;14.66;71.79;99658.72;4995689;28;20030;-85
2023/10/01 07:27:06;;;;;;;12.68;5.47;;;;;;;14.73;71.55;99669.28;5017004;28;20030;-86
2023/10/01 07:29:41;;;;;;;10.00;5.50;;;;;;;14.72;71.85;99668.47;5013308;28;20113;-86
2023/10/01 07:32:08;;;;;;;7.55;5.55;;;;;;;14.83;71.38;99677.44;5012867;28;20088;-84
2023/10/01 07:34:35;;;;;;;9.00;5.15;;;;;;;14.79;71.73;99654.81;4998411;28;20025;-84
2023/10/01 07:37:03;;;;;;;11.82;5.53;;;;;;;14.86;71.70;99666.16;5018763;28;20080;-83
2023/10/01 07:39:36;;;;;;;11.10;4.75;;;;;;;14.82;71.91;99660.50;5002001;28;20033;-82
2023/10/01 07:42:04;;;;;;;7.07;4.55;;;;;;;14.79;71.60;99669.06;4998607;28;20043;-82
2023/10/01 07:44:36;;;;;;;12.60;5.95;;;;;;;14.87;72.00;99670.50;5003500;28;20045;-82
2023/10/01 07:47:03;;;;;;;7.10;4.53;;;;;;;14.86;71.78;99675.03;4996267;28;20474;-82
2023/10/01 07:49:46;;;;;;;7.28;4.85;;;;;;;14.98;71.42;99674.88;5015152;28;20550;-82
2023/10/01 07:52:13;;;;;;;11.10;5.47;;;;;;;14.94;71.41;99663.81;4996987;28;21506;-83
2023/10/01 07:54:39;;;;;;;9.80;5.05;;;;;;;15.00;71.44;99665.47;5015776;28;20030;-83
2023/10/01 07:57:08;;;;;;;9.95;5.50;;;;;;;14.96;71.85;99668.97;5014317;28;20084;-83
2023/10/01 07:59:34;;;;;;;9.00;5.35;;;;;;;15.07;71.75;99667.94;5010710;28;20030;-83
2023/10/01 08:07:18;;;;;;;12.55;5.13;;;;;;;15.05;71.68;99663.91;5015747;28;20439;-82
2023/10/01 08:09:51;;;;;;;7.82;5.72;;;;;;;14.99;72.26;99673.78;4995553;28;20097;-82
2023/10/01 08:12:19;;;;;;;15.18;5.40;;;;;;;14.97;71.49;99655.25;4991032;28;20029;-83
2023/10/01 08:15:15;;;;;;;8.10;5.32;;;;;;;15.12;71.21;99667.97;5000382;28;20034;-82
2023/10/01 08:17:32;;;;;;;10.07;5.28;;;;;;;15.12;71.18;99659.91;5008498;28;20034;-83
2023/10/01 08:20:14;;;;;;;11.98;5.43;;;;;;;15.13;71.55;99658.03;4996091;28;20564;-83
2023/10/01 08:22:43;;;;;;;9.77;5.00;;;;;;;15.18;71.64;99655.41;4991661;28;20037;-82
2023/10/01 08:25:12;;;;;;;10.93;5.93;;;;;;;15.21;70.96;99654.88;4996962;28;20026;-83
2023/10/01 08:28:08;;;;;;;10.63;5.60;;;;;;;15.24;71.51;99665.94;4989508;28;20257;-83
2023/10/01 08:30:38;;;;;;;10.40;4.90;;;;;;;15.26;71.25;99662.97;5020325;28;20053;-82
2023/10/01 08:33:32;;;;;;;13.77;5.90;;;;;;;15.25;71.61;99669.41;4993171;28;20059;-83
2023/10/01 08:35:56;;;;;;;8.93;4.97;;;;;;;15.28;71.48;99663.53;5011785;28;20033;-82
2023/10/01 08:38:29;;;;;;;11.15;5.45;;;;;;;15.31;71.25;99666.50;5012126;28;20042;-82
2023/10/01 08:41:00;;;;;;;8.98;5.43;;;;;;;15.32;71.34;99675.38;4996567;28;20244;-83
2023/10/01 08:43:36;;;;;;;9.23;4.88;;;;;;;15.34;71.03;99678.63;5011141;28;20060;-82
2023/10/01 08:46:16;;;;;;;9.53;5.47;;;;;;;15.32;71.24;99664.63;4995748;28;20088;-83
2023/10/01 08:48:44;;;;;;;8.70;4.85;;;;;;;15.48;71.28;99677.16;4997260;28;20294;-83
2023/10/01 08:51:16;;;;;;;8.25;5.00;;;;;;;15.55;70.98;99678.53;5006434;28;20045;-83
2023/10/01 08:53:43;;;;;;;9.73;5.47;;;;;;;15.55;70.61;99678.53;5006097;28;20026;-82
2023/10/01 08:56:13;;;;;;;11.38;4.85;;;;;;;15.58;70.72;99680.72;4997919;28;20560;-82
2023/10/01 08:58:49;;;;;;;10.50;5.13;;;;;;;15.67;70.49;99683.72;4998160;28;20030;-83
2023/10/01 09:01:19;;;;;;;;;;;;;;;15.60;71.12;99681.25;5006460;28;20427;-83
2023/10/01 09:03:49;;;;;;;9.07;5.00;;;;;;;15.68;70.98;99680.75;4997293;28;19957;-82
2023/10/01 09:06:24;;;;;;;12.10;5.07;;;;;;;15.68;71.63;99680.75;4997993;28;20022;-83
2023/10/01 09:08:54;;;;;;;9.40;5.38;;;;;;;15.84;70.33;99675.44;4991969;28;20058;-83
2023/10/01 09:11:45;;;;;;;11.75;5.05;;;;;;;15.87;69.90;99669.53;5010444;28;20052;-83
2023/10/01 09:14:21;;;;;;;10.57;4.85;;;;;;;15.89;70.22;99668.22;5010024;28;20034;-83
2023/10/01 09:16:49;;;;;;;;;;;;;;;15.90;69.80;99674.41;4984474;28;20061;-82
2023/10/01 09:19:35;;;;;;;13.07;5.95;;;;;;;15.89;70.35;99679.00;4994336;28;19921;-83
2023/10/01 09:25:20;;;;;;;10.18;5.43;;;;;;;16.00;69.69;99672.56;5013163;28;20096;-83
2023/10/01 09:27:57;;;;;;;10.15;5.63;;;;;;;16.07;69.53;99670.47;5009768;28;20025;-83
2023/10/01 09:30:26;;;;;;;14.25;6.38;;;;;;;16.09;69.76;99678.25;5010180;28;20026;-83
2023/10/01 09:32:56;;;;;;;12.95;5.43;;;;;;;16.20;69.35;99678.03;5009936;28;20022;-83
2023/10/01 09:35:38;;;;;;;11.18;5.60;;;;;;;16.25;69.56;99671.88;5008894;28;20041;-83
2023/10/01 09:38:12;;;;;;;10.45;5.43;;;;;;;16.21;69.65;99679.66;5014876;28;20112;-83
2023/10/01 09:40:42;;;;;;;9.80;6.05;;;;;;;16.24;69.93;99662.16;5012161;28;20117;-83
2023/10/01 09:43:19;;;;;;;12.15;6.10;;;;;;;16.35;69.73;99670.00;5013376;28;20378;-83
2023/10/01 09:45:46;;;;;;;13.23;6.32;;;;;;;16.26;70.95;99676.16;5010927;28;20034;-82
2023/10/01 09:48:34;;;;;;;18.90;6.30;;;;;;;16.34;70.18;99671.06;5004667;28;20048;-83
2023/10/01 09:51:14;;;;;;;10.23;5.68;;;;;;;16.32;70.44;99667.81;5010196;28;20033;-83
2023/10/01 09:53:50;;;;;;;12.57;6.15;;;;;;;16.46;69.60;99646.56;4997578;28;20038;-83
2023/10/01 09:59:07;;;;;;;13.30;5.75;;;;;;;16.40;69.75;99667.28;4997726;28;20080;-83
2023/10/01 10:04:02;;;;;;;15.95;7.07;;;;;;;16.48;71.32;99672.19;5003686;28;20517;-82
2023/10/01 10:06:31;;;;;;;13.45;6.40;;;;;;;16.65;69.20;99671.16;4999980;28;21671;-82
2023/10/01 10:09:06;;;;;;;13.05;6.13;;;;;;;16.52;71.21;99659.00;5006042;28;20057;-82
2023/10/01 10:11:37;;;;;;;12.70;6.20;;;;;;;16.53;69.42;99640.97;4997596;28;20795;-82
2023/10/01 10:14:25;;;;;;;14.43;6.40;;;;;;;16.80;69.16;99660.38;4979774;28;20952;-82
2023/10/01 10:16:58;;;;;;;14.30;6.03;;;;;;;16.90;70.62;99653.13;5007371;28;20057;-82
2023/10/01 10:19:30;;;;;;;11.30;5.45;;;;;;;16.99;69.03;99642.59;5003814;28;20049;-81
2023/10/01 10:24:29;;;;;;;12.43;6.35;;;;;;;17.23;70.84;99636.34;5001067;28;20121;-81
2023/10/01 10:27:09;;;;;;;13.75;6.85;;;;;;;17.40;68.32;99640.66;5002057;28;20062;-81
2023/10/01 10:29:46;;;;;;;15.45;6.30;;;;;;;17.58;67.76;99657.09;5000664;28;20095;-82
2023/10/01 10:32:13;;;;;;;15.75;6.50;;;;;;;17.63;67.64;99650.88;5005390;28;20037;-82
2023/10/01 10:35:04;;;;;;;13.70;6.75;;;;;;;17.68;67.36;99648.97;4986879;28;20548;-82
2023/10/01 10:37:56;;;;;;;18.10;6.80;;;;;;;17.80;67.17;99646.75;5007074;28;20045;-82
2023/10/01 10:42:46;;;;;;;11.32;6.38;;;;;;;17.89;66.72;99628.91;5004244;28;20050;-82
2023/10/01 10:45:21;;;;;;;15.02;6.85;;;;;;;17.99;67.19;99644.28;5001796;28;20037;-83
2023/10/01 10:48:04;;;;;;;13.60;6.78;;;;;;;17.94;66.79;99631.59;5002609;28;20385;-82
2023/10/01 10:50:53;;;;;;;19.17;7.13;;;;;;;18.11;66.46;99652.84;4995862;28;20109;-82
2023/10/01 10:53:46;;;;;;;11.18;6.18;;;;;;;18.16;66.46;99643.91;5007051;28;20040;-82
2023/10/01 10:56:16;;;;;;;11.45;6.82;;;;;;;18.07;66.43;99637.47;4981508;28;20084;-83
2023/10/01 10:59:01;;;;;;;16.05;7.00;;;;;;;18.08;67.64;99648.00;4989617;28;20029;-81
2023/10/01 11:01:43;;;;;;;15.55;7.18;;;;;;;18.08;66.98;99649.91;5005279;28;20158;-82
2023/10/01 11:04:09;;;;;;;13.38;7.47;;;;;;;18.03;66.47;99637.22;5020346;28;20559;-83
2023/10/01 11:06:44;;;;;;;11.73;6.53;;;;;;;18.11;67.00;99639.34;5002411;28;20038;-82
2023/10/01 11:09:26;;;;;;;15.93;6.93;;;;;;;18.11;66.90;99633.94;5002667;28;20049;-83
2023/10/01 11:11:58;;;;;;;14.90;7.10;;;;;;;18.12;66.41;99630.16;5003476;28;20432;-82
2023/10/01 11:14:25;;;;;;;15.88;6.80;;;;;;;18.24;66.69;99630.63;4997889;28;20382;-82
2023/10/01 11:16:51;;;;;;;19.13;7.32;;;;;;;18.24;66.82;99619.81;4994934;28;20378;-82
2023/10/01 11:19:25;;;;;;;11.23;6.50;;;;;;;18.31;66.41;99619.50;4992694;28;20040;-82
2023/10/01 11:21:55;;;;;;;18.08;7.50;;;;;;;18.36;66.62;99616.78;4989723;28;20113;-82
2023/10/01 11:24:39;;;;;;;15.88;7.88;;;;;;;18.48;65.93;99620.75;5003319;28;20117;-82
2023/10/01 11:27:20;;;;;;;18.00;7.22;;;;;;;18.58;65.54;99619.91;5000899;28;20112;-82
2023/10/01 11:30:28;;;;;;;16.15;8.73;;;;;;;18.60;65.69;99625.84;5007312;28;20029;-82
2023/10/01 11:35:33;;;;;;;14.95;6.72;;;;;;;18.68;65.63;99619.81;5002854;28;20034;-82
2023/10/01 11:38:19;;;;;;;13.73;7.60;;;;;;;18.85;64.80;99620.22;5000786;28;20030;-81
2023/10/01 11:43:43;;;;;;;14.45;6.90;;;;;;;18.81;66.52;99610.25;5002439;28;20044;-81
2023/10/01 11:46:23;;;;;;;13.15;6.70;;;;;;;19.05;64.87;99611.09;5000047;28;20386;-80
2023/10/01 11:49:04;;;;;;;18.65;7.38;;;;;;;19.11;64.88;99618.88;4998016;28;20092;-80
2023/10/01 11:51:42;;;;;;;18.67;7.50;;;;;;;19.13;65.02;99600.47;5018579;28;20030;-80
2023/10/01 11:54:11;;;;;;;16.20;6.97;;;;;;;19.17;64.83;99606.94;5004878;28;20022;-80
2023/10/01 11:56:40;;;;;;;17.88;7.78;;;;;;;19.25;64.44;99600.91;5000395;28;20029;-80
2023/10/01 11:59:11;;;;;;;15.05;6.97;;;;;;;19.23;64.32;99594.16;5007059;28;20422;-80
2023/10/01 12:01:47;;;;;;;14.30;7.20;;;;;;;19.41;64.29;99594.28;5003161;28;20038;-80
2023/10/01 12:04:16;;;;;;;;;;;;;;;19.60;63.78;99604.34;5008023;28;20021;-79
2023/10/01 12:06:43;;;;;;;12.60;7.50;;;;;;;19.67;63.20;99597.50;5002707;28;19914;-80
2023/10/01 12:09:09;;;;;;;13.20;7.68;;;;;;;19.71;63.18;99603.94;4989185;28;20045;-80
2023/10/01 12:11:36;;;;;;;15.07;8.25;;;;;;;19.71;63.26;99598.53;5005611;28;20587;-79
2023/10/01 12:14:17;;;;;;;16.70;8.02;;;;;;;20.06;62.94;99602.66;5008200;28;20026;-80
2023/10/01 12:16:43;;;;;;;17.70;8.05;;;;;;;19.89;62.68;99596.94;5006943;28;20040;-79
2023/10/01 12:19:24;;;;;;;18.35;7.80;;;;;;;19.76;63.25;99584.09;4988434;28;20030;-80
2023/10/01 12:22:05;;;;;;;19.63;8.27;;;;;;;19.74;63.21;99584.41;5003386;28;20038;-80
2023/10/01 12:24:40;;;;;;;12.18;6.53;;;;;;;19.68;63.17;99568.50;4999791;28;20073;-80
2023/10/01 12:27:10;;;;;;;22.35;9.35;;;;;;;19.94;62.88;99580.63;5023159;28;20034;-79
2023/10/01 12:29:48;;;;;;;15.93;7.38;;;;;;;20.33;62.13;99554.06;5002954;28;20026;-80
2023/10/01 12:32:14;;;;;;;16.08;8.02;;;;;;;20.49;62.10;99565.44;4974568;28;20128;-80
2023/10/01 12:34:42;;;;;;;18.30;8.02;;;;;;;20.43;62.95;99551.19;5008038;28;20071;-80
2023/10/01 12:37:35;;;;;;;15.80;8.57;;;;;;;20.56;62.26;99569.41;5008061;28;20543;-80
2023/10/01 12:40:14;;;;;;;13.98;7.30;;;;;;;20.99;61.07;99563.81;5003392;28;20038;-80
2023/10/01 12:42:39;;;;;;;18.42;8.38;;;;;;;20.81;60.64;99551.91;4985674;28;20046;-79
2023/10/01 12:45:19;;;;;;;13.55;7.53;;;;;;;20.89;60.56;99564.78;5006566;28;20460;-80
2023/10/01 12:47:53;;;;;;;13.50;7.22;;;;;;;21.16;59.45;99569.50;5007424;28;20375;-80
2023/10/01 12:50:28;;;;;;;14.48;8.02;;;;;;;21.05;59.71;99566.16;5006351;28;20061;-80
2023/10/01 12:55:39;;;;;;;16.45;8.43;;;;;;;21.16;59.98;99545.06;5002078;28;20397;-81
2023/10/01 12:58:06;;;;;;;14.23;8.27;;;;;;;21.37;59.63;99559.84;5004795;28;20742;-81
2023/10/01 13:00:45;;;;;;;16.02;8.02;;;;;;;21.44;59.30;99558.34;4986311;28;20030;-80
2023/10/01 13:03:19;;;;;;;12.88;7.97;;;;;;;21.59;59.18;99565.38;5002338;28;20042;-80
2023/10/01 13:05:47;;;;;;;14.38;7.35;;;;;;;21.51;59.01;99538.94;4991983;28;20044;-81
2023/10/01 13:08:27;;;;;;;12.80;7.80;;;;;;;21.61;58.92;99550.41;5011357;28;20049;-81
2023/10/01 13:10:55;;;;;;;10.88;6.68;;;;;;;21.72;59.04;99547.44;5004521;28;20038;-80
2023/10/01 13:13:29;;;;;;;14.13;7.70;;;;;;;21.54;59.21;99532.88;5018677;28;20042;-80
2023/10/01 13:15:55;;;;;;;14.77;7.82;;;;;;;21.76;58.67;99543.81;4998934;28;20042;-81
2023/10/01 13:18:28;;;;;;;12.40;7.68;;;;;;;21.90;58.24;99531.06;4985168;28;20037;-80
2023/10/01 13:23:28;;;;;;;13.20;6.55;;;;;;;21.32;59.51;99511.06;5009610;28;20067;-81
2023/10/01 13:26:06;;;;;;;17.02;7.63;;;;;;;21.31;60.33;99521.13;5009776;28;20021;-80
2023/10/01 13:28:51;;;;;;;13.73;7.78;;;;;;;21.41;59.68;99525.53;5011436;28;20025;-80